createdAt,value
2023-05-09T00:00:06.479Z,7.90
2023-05-09T00:01:13.216Z,7.96
2023-05-09T00:02:16.367Z,7.99
2023-05-09T00:03:19.385Z,7.98
2023-05-09T00:04:22.166Z,7.97
2023-05-09T00:05:25.198Z,7.89
2023-05-09T00:06:28.239Z,7.90
2023-05-09T00:07:31.904Z,7.86
2023-05-09T00:08:34.881Z,7.92
2023-05-09T00:09:37.614Z,7.92
2023-05-09T00:10:40.716Z,7.85
2023-05-09T00:11:43.760Z,7.92
2023-05-09T00:12:47.517Z,7.97
2023-05-09T00:13:50.969Z,7.94
2023-05-09T00:14:54.496Z,7.87
2023-05-09T00:15:59.967Z,7.78
2023-05-09T00:17:02.664Z,7.76
2023-05-09T00:18:05.774Z,7.78
2023-05-09T00:19:08.492Z,7.73
2023-05-09T00:20:12.624Z,7.74
2023-05-09T00:21:15.789Z,7.77
2023-05-09T00:22:21.579Z,7.73
2023-05-09T00:23:24.330Z,7.70
2023-05-09T00:24:27.105Z,7.70
2023-05-09T00:25:29.867Z,7.92
2023-05-09T00:26:32.656Z,7.84
2023-05-09T00:27:35.659Z,7.78
2023-05-09T00:28:38.431Z,7.78
2023-05-09T00:29:41.177Z,7.78
2023-05-09T00:30:44.036Z,7.74
2023-05-09T00:31:46.814Z,7.68
2023-05-09T00:32:49.697Z,7.64
2023-05-09T00:33:54.414Z,7.67
2023-05-09T00:34:57.096Z,7.62
2023-05-09T00:35:59.979Z,7.60
2023-05-09T00:37:02.809Z,7.58
2023-05-09T00:38:05.458Z,7.77
2023-05-09T00:39:08.871Z,7.75
2023-05-09T00:40:12.010Z,7.70
2023-05-09T00:41:14.807Z,7.62
2023-05-09T00:42:17.497Z,7.54
2023-05-09T00:43:21.250Z,7.57
2023-05-09T00:44:24.063Z,7.52
2023-05-09T00:45:26.838Z,7.46
2023-05-09T00:46:29.723Z,7.46
2023-05-09T00:47:32.690Z,7.63
2023-05-09T00:48:35.932Z,7.55
2023-05-09T00:49:38.843Z,7.46
2023-05-09T00:50:41.559Z,7.37
2023-05-09T00:51:44.520Z,7.35
2023-05-09T00:52:47.340Z,7.40
2023-05-09T00:53:50.489Z,7.46
2023-05-09T00:54:54.573Z,7.36
2023-05-09T00:55:58.006Z,7.30
2023-05-09T00:57:00.977Z,7.24
2023-05-09T00:58:04.196Z,7.32
2023-05-09T00:59:06.950Z,7.26
2023-05-09T01:00:13.748Z,7.24
2023-05-09T01:01:17.063Z,7.23
2023-05-09T01:02:20.206Z,7.22
2023-05-09T01:03:23.552Z,7.21
2023-05-09T01:04:26.724Z,7.16
2023-05-09T01:05:55.687Z,7.24
2023-05-09T01:07:31.302Z,7.14
2023-05-09T01:08:47.514Z,7.10
2023-05-09T01:09:53.480Z,7.20
2023-05-09T01:11:07.343Z,7.12
2023-05-09T01:12:19.338Z,7.08
2023-05-09T01:13:32.408Z,7.07
2023-05-09T01:14:43.358Z,7.05
2023-05-09T01:15:59.276Z,7.18
2023-05-09T01:17:10.946Z,7.07
2023-05-09T01:18:31.244Z,7.08
2023-05-09T01:19:43.238Z,7.03
2023-05-09T01:20:54.158Z,7.04
2023-05-09T01:21:57.977Z,7.00
2023-05-09T01:23:23.113Z,6.95
2023-05-09T01:24:44.950Z,6.97
2023-05-09T01:26:03.457Z,6.86
2023-05-09T01:27:48.835Z,6.82
2023-05-09T01:29:29.282Z,6.77
2023-05-09T01:30:35.057Z,6.78
2023-05-09T01:31:42.137Z,6.82
2023-05-09T01:32:50.521Z,6.76
2023-05-09T01:33:57.621Z,6.77
2023-05-09T01:35:03.396Z,6.90
2023-05-09T01:36:12.431Z,6.85
2023-05-09T01:37:16.578Z,6.73
2023-05-09T01:38:23.352Z,6.68
2023-05-09T01:39:27.864Z,6.65
2023-05-09T01:40:33.963Z,6.62
2023-05-09T01:41:38.048Z,6.69
2023-05-09T01:42:58.634Z,6.65
2023-05-09T01:44:06.670Z,6.61
2023-05-09T01:45:11.764Z,6.53
2023-05-09T01:46:17.442Z,6.53
2023-05-09T01:47:21.486Z,6.50
2023-05-09T01:48:30.279Z,6.46
2023-05-09T01:49:35.915Z,6.41
2023-05-09T01:50:41.514Z,6.42
2023-05-09T01:51:45.444Z,6.41
2023-05-09T01:52:52.057Z,6.41
2023-05-09T01:53:56.953Z,6.40
2023-05-09T01:55:02.619Z,6.35
2023-05-09T01:56:07.920Z,6.26
2023-05-09T01:57:12.257Z,6.23
2023-05-09T01:58:16.938Z,6.19
2023-05-09T01:59:21.529Z,6.20
2023-05-09T02:00:25.370Z,6.16
2023-05-09T02:01:29.448Z,6.18
2023-05-09T02:02:33.133Z,6.16
2023-05-09T02:03:38.945Z,6.11
2023-05-09T02:04:43.696Z,6.07
2023-05-09T02:05:47.604Z,6.05
2023-05-09T02:06:51.668Z,6.09
2023-05-09T02:07:59.505Z,6.08
2023-05-09T02:09:03.208Z,5.97
2023-05-09T02:10:09.375Z,5.92
2023-05-09T02:11:12.153Z,5.88
2023-05-09T02:12:14.936Z,5.90
2023-05-09T02:13:17.904Z,5.86
2023-05-09T02:14:20.992Z,5.86
2023-05-09T02:15:24.705Z,5.88
2023-05-09T02:16:28.147Z,5.91
2023-05-09T02:17:31.027Z,5.91
2023-05-09T02:18:35.603Z,5.83
2023-05-09T02:19:38.478Z,5.77
2023-05-09T02:20:41.358Z,5.74
2023-05-09T02:21:44.326Z,5.74
2023-05-09T02:22:48.010Z,5.73
2023-05-09T02:23:50.841Z,5.74
2023-05-09T02:24:53.734Z,5.69
2023-05-09T02:25:56.916Z,5.62
2023-05-09T02:27:01.082Z,5.52
2023-05-09T02:28:04.318Z,5.52
2023-05-09T02:29:09.368Z,5.53
2023-05-09T02:30:17.532Z,5.53
2023-05-09T02:31:23.497Z,5.53
2023-05-09T02:32:29.460Z,5.58
2023-05-09T02:33:36.165Z,5.56
2023-05-09T02:34:41.205Z,5.53
2023-05-09T02:35:46.492Z,5.60
2023-05-09T02:36:49.761Z,5.51
2023-05-09T02:37:53.252Z,5.54
2023-05-09T02:38:56.193Z,5.48
2023-05-09T02:39:58.973Z,5.35
2023-05-09T02:41:01.776Z,5.39
2023-05-09T02:42:09.606Z,5.27
2023-05-09T02:43:12.430Z,5.25
2023-05-09T02:44:15.230Z,5.28
2023-05-09T02:45:17.967Z,5.21
2023-05-09T02:46:20.934Z,5.16
2023-05-09T02:47:23.765Z,5.13
2023-05-09T02:48:26.835Z,5.18
2023-05-09T02:49:32.499Z,5.09
2023-05-09T02:50:35.685Z,5.02
2023-05-09T02:51:38.389Z,5.02
2023-05-09T02:52:41.276Z,5.08
2023-05-09T02:53:44.047Z,5.04
2023-05-09T02:54:48.157Z,5.10
2023-05-09T02:55:51.040Z,5.11
2023-05-09T02:56:53.906Z,5.14
2023-05-09T02:58:09.360Z,5.13
2023-05-09T02:59:16.366Z,5.15
2023-05-09T03:00:20.076Z,5.19
2023-05-09T03:01:23.018Z,5.22
2023-05-09T03:02:26.316Z,5.46
2023-05-09T03:03:29.224Z,5.44
2023-05-09T03:04:32.223Z,5.47
2023-05-09T03:05:35.210Z,5.51
2023-05-09T03:06:38.244Z,5.46
2023-05-09T03:07:40.980Z,5.50
2023-05-09T03:08:43.872Z,5.50
2023-05-09T03:09:46.535Z,5.49
2023-05-09T03:10:49.260Z,5.60
2023-05-09T03:11:51.966Z,5.71
2023-05-09T03:12:54.740Z,5.82
2023-05-09T03:13:57.605Z,5.77
2023-05-09T03:15:01.396Z,5.71
2023-05-09T03:16:04.362Z,5.75
2023-05-09T03:17:07.021Z,5.83
2023-05-09T03:18:09.855Z,5.92
2023-05-09T03:19:12.704Z,5.93
2023-05-09T03:20:15.936Z,5.92
2023-05-09T03:21:18.793Z,5.97
2023-05-09T03:22:21.629Z,5.99
2023-05-09T03:23:24.346Z,5.99
2023-05-09T03:24:28.518Z,5.98
2023-05-09T03:25:31.559Z,6.00
2023-05-09T03:26:37.422Z,6.02
2023-05-09T03:27:40.140Z,6.16
2023-05-09T03:28:42.971Z,6.27
2023-05-09T03:29:45.862Z,6.25
2023-05-09T03:30:48.631Z,6.22
2023-05-09T03:31:51.339Z,6.17
2023-05-09T03:32:54.007Z,6.12
2023-05-09T03:33:56.750Z,6.16
2023-05-09T03:35:00.684Z,6.17
2023-05-09T03:36:03.454Z,6.25
2023-05-09T03:37:06.247Z,6.25
2023-05-09T03:38:08.921Z,6.26
2023-05-09T03:39:11.832Z,6.20
2023-05-09T03:40:14.788Z,6.23
2023-05-09T03:41:19.111Z,6.28
2023-05-09T03:42:22.725Z,6.26
2023-05-09T03:43:25.567Z,6.25
2023-05-09T03:44:28.287Z,6.28
2023-05-09T03:45:31.221Z,6.25
2023-05-09T03:46:34.134Z,6.26
2023-05-09T03:47:36.876Z,6.24
2023-05-09T03:48:39.594Z,6.24
2023-05-09T03:49:42.676Z,6.34
2023-05-09T03:50:45.585Z,6.44
2023-05-09T03:51:48.473Z,6.42
2023-05-09T03:52:51.486Z,6.37
2023-05-09T03:53:54.170Z,6.41
2023-05-09T03:54:56.869Z,6.47
2023-05-09T03:55:59.504Z,6.51
2023-05-09T03:57:02.222Z,6.50
2023-05-09T03:58:04.888Z,6.47
2023-05-09T03:59:07.511Z,6.45
2023-05-09T04:00:10.587Z,6.51
2023-05-09T04:01:13.589Z,6.53
2023-05-09T04:02:16.423Z,6.61
2023-05-09T04:03:19.294Z,6.60
2023-05-09T04:04:22.119Z,6.68
2023-05-09T04:05:24.880Z,6.72
2023-05-09T04:06:27.648Z,6.69
2023-05-09T04:07:31.064Z,6.74
2023-05-09T04:08:34.045Z,6.81
2023-05-09T04:09:36.745Z,6.83
2023-05-09T04:10:39.620Z,6.83
2023-05-09T04:11:42.365Z,6.81
2023-05-09T04:12:45.024Z,6.84
2023-05-09T04:13:47.862Z,6.84
2023-05-09T04:14:51.922Z,6.91
2023-05-09T04:15:54.555Z,6.98
2023-05-09T04:16:57.247Z,6.97
2023-05-09T04:17:59.983Z,6.98
2023-05-09T04:19:02.834Z,7.04
2023-05-09T04:20:08.456Z,7.00
2023-05-09T04:21:11.237Z,7.06
2023-05-09T04:22:13.987Z,7.06
2023-05-09T04:23:16.708Z,7.03
2023-05-09T04:24:19.748Z,7.02
2023-05-09T04:25:22.630Z,7.08
2023-05-09T04:26:26.067Z,7.07
2023-05-09T04:27:29.053Z,7.07
2023-05-09T04:28:31.839Z,7.09
2023-05-09T04:29:35.337Z,7.20
2023-05-09T04:30:38.095Z,7.20
2023-05-09T04:31:40.991Z,7.25
2023-05-09T04:32:46.959Z,7.29
2023-05-09T04:33:49.720Z,7.34
2023-05-09T04:34:52.445Z,7.37
2023-05-09T04:35:55.149Z,7.40
2023-05-09T04:36:58.126Z,7.39
2023-05-09T04:38:00.898Z,7.46
2023-05-09T04:39:05.639Z,7.50
2023-05-09T04:40:09.571Z,7.51
2023-05-09T04:41:12.364Z,7.49
2023-05-09T04:42:15.384Z,7.61
2023-05-09T04:43:18.107Z,7.59
2023-05-09T04:44:21.793Z,7.68
2023-05-09T04:45:24.491Z,7.69
2023-05-09T04:46:27.353Z,7.76
2023-05-09T04:47:30.192Z,7.80
2023-05-09T04:48:32.901Z,7.78
2023-05-09T04:49:35.590Z,7.73
2023-05-09T04:50:38.243Z,7.79
2023-05-09T04:51:40.997Z,7.85
2023-05-09T04:52:43.668Z,7.90
2023-05-09T04:53:46.391Z,7.98
2023-05-09T04:54:49.351Z,8.00
2023-05-09T04:55:52.134Z,8.10
2023-05-09T04:57:03.093Z,8.14
2023-05-09T04:58:10.080Z,8.25
2023-05-09T04:59:13.106Z,8.28
2023-05-09T05:00:18.077Z,8.28
2023-05-09T05:01:21.092Z,8.34
2023-05-09T05:02:25.425Z,8.44
2023-05-09T05:03:28.330Z,8.49
2023-05-09T05:04:32.042Z,8.50
2023-05-09T05:05:37.118Z,8.49
2023-05-09T05:06:40.581Z,8.57
2023-05-09T05:07:43.476Z,8.59
2023-05-09T05:08:46.314Z,8.60
2023-05-09T05:09:49.153Z,8.66
2023-05-09T05:10:51.921Z,8.71
2023-05-09T05:12:01.749Z,8.79
2023-05-09T05:13:05.345Z,8.76
2023-05-09T05:14:08.176Z,8.72
2023-05-09T05:15:11.661Z,8.77
2023-05-09T05:16:14.618Z,8.79
2023-05-09T05:17:18.478Z,8.83
2023-05-09T05:18:21.405Z,8.83
2023-05-09T05:19:24.212Z,8.84
2023-05-09T05:20:27.061Z,8.78
2023-05-09T05:21:30.042Z,8.83
2023-05-09T05:22:32.976Z,8.90
2023-05-09T05:23:35.796Z,8.91
2023-05-09T05:24:38.560Z,8.94
2023-05-09T05:25:41.155Z,8.95
2023-05-09T05:26:43.912Z,8.92
2023-05-09T05:27:46.611Z,8.91
2023-05-09T05:28:49.467Z,8.95
2023-05-09T05:29:52.257Z,9.02
2023-05-09T05:30:55.048Z,9.01
2023-05-09T05:31:57.970Z,9.06
2023-05-09T05:33:00.895Z,9.10
2023-05-09T05:34:03.782Z,9.11
2023-05-09T05:35:06.905Z,9.14
2023-05-09T05:36:09.878Z,9.12
2023-05-09T05:37:12.569Z,9.16
2023-05-09T05:38:15.436Z,9.10
2023-05-09T05:39:18.089Z,9.14
2023-05-09T05:40:21.478Z,9.20
2023-05-09T05:41:24.348Z,9.21
2023-05-09T05:42:27.049Z,9.24
2023-05-09T05:43:30.505Z,9.24
2023-05-09T05:44:33.272Z,9.22
2023-05-09T05:45:36.164Z,9.24
2023-05-09T05:46:38.923Z,9.28
2023-05-09T05:47:41.647Z,9.30
2023-05-09T05:48:44.805Z,9.32
2023-05-09T05:49:47.503Z,9.28
2023-05-09T05:50:50.331Z,9.33
2023-05-09T05:51:53.105Z,9.33
2023-05-09T05:52:55.810Z,9.36
2023-05-09T05:53:58.611Z,9.38
2023-05-09T05:55:01.314Z,9.39
2023-05-09T05:56:04.146Z,9.44
2023-05-09T05:57:08.401Z,9.51
2023-05-09T05:58:11.210Z,9.50
2023-05-09T05:59:14.001Z,9.49
2023-05-09T06:00:17.570Z,9.47
2023-05-09T06:01:20.393Z,9.52
2023-05-09T06:02:23.286Z,9.60
2023-05-09T06:03:26.245Z,9.62
2023-05-09T06:04:29.212Z,9.66
2023-05-09T06:05:32.189Z,9.69
2023-05-09T06:06:35.045Z,9.73
2023-05-09T06:07:37.834Z,9.74
2023-05-09T06:08:40.552Z,9.75
2023-05-09T06:09:43.253Z,9.78
2023-05-09T06:10:46.117Z,9.79
2023-05-09T06:11:48.937Z,9.83
2023-05-09T06:12:51.646Z,9.82
2023-05-09T06:13:54.299Z,9.79
2023-05-09T06:14:57.031Z,9.78
2023-05-09T06:16:07.711Z,9.83
2023-05-09T06:17:18.973Z,9.86
2023-05-09T06:18:22.041Z,9.93
2023-05-09T06:19:24.849Z,9.93
2023-05-09T06:20:27.630Z,10.02
2023-05-09T06:21:30.734Z,10.09
2023-05-09T06:22:33.473Z,10.07
2023-05-09T06:23:38.018Z,9.98
2023-05-09T06:24:43.111Z,10.00
2023-05-09T06:25:45.866Z,9.96
2023-05-09T06:26:50.462Z,9.89
2023-05-09T06:27:53.134Z,9.92
2023-05-09T06:28:56.261Z,9.88
2023-05-09T06:29:58.882Z,9.95
2023-05-09T06:31:02.000Z,9.98
2023-05-09T06:32:05.052Z,9.99
2023-05-09T06:33:07.818Z,10.12
2023-05-09T06:34:10.679Z,10.15
2023-05-09T06:35:13.655Z,10.17
2023-05-09T06:36:16.502Z,10.21
2023-05-09T06:37:19.288Z,10.26
2023-05-09T06:38:22.149Z,10.31
2023-05-09T06:39:24.797Z,10.34
2023-05-09T06:40:27.658Z,10.41
2023-05-09T06:41:30.456Z,10.49
2023-05-09T06:42:33.933Z,10.57
2023-05-09T06:43:36.718Z,10.63
2023-05-09T06:44:39.453Z,10.61
2023-05-09T06:45:42.230Z,10.67
2023-05-09T06:46:45.106Z,10.65
2023-05-09T06:47:48.033Z,10.71
2023-05-09T06:48:51.068Z,10.77
2023-05-09T06:49:54.077Z,10.87
2023-05-09T06:50:56.857Z,10.90
2023-05-09T06:51:59.578Z,10.88
2023-05-09T06:53:02.168Z,10.91
2023-05-09T06:54:04.930Z,10.93
2023-05-09T06:55:08.898Z,10.96
2023-05-09T06:56:12.141Z,10.99
2023-05-09T06:57:14.901Z,11.02
2023-05-09T06:58:17.620Z,11.02
2023-05-09T06:59:20.650Z,11.14
2023-05-09T07:00:23.582Z,11.15
2023-05-09T07:01:26.456Z,11.25
2023-05-09T07:02:29.286Z,11.32
2023-05-09T07:03:32.019Z,11.43
2023-05-09T07:04:34.650Z,11.41
2023-05-09T07:05:37.309Z,11.43
2023-05-09T07:06:40.049Z,11.48
2023-05-09T07:07:42.787Z,11.49
2023-05-09T07:08:46.114Z,11.57
2023-05-09T07:09:50.835Z,11.62
2023-05-09T07:10:56.032Z,11.64
2023-05-09T07:12:01.756Z,11.70
2023-05-09T07:13:05.138Z,11.69
2023-05-09T07:14:08.008Z,11.71
2023-05-09T07:15:11.448Z,11.75
2023-05-09T07:16:14.238Z,11.75
2023-05-09T07:17:23.481Z,11.77
2023-05-09T07:18:26.975Z,11.81
2023-05-09T07:19:29.868Z,11.88
2023-05-09T07:20:32.693Z,12.00
2023-05-09T07:21:35.670Z,12.07
2023-05-09T07:22:38.529Z,12.13
2023-05-09T07:23:41.151Z,12.19
2023-05-09T07:24:46.750Z,12.23
2023-05-09T07:25:49.529Z,12.23
2023-05-09T07:26:52.460Z,12.30
2023-05-09T07:27:55.084Z,12.36
2023-05-09T07:28:57.987Z,12.44
2023-05-09T07:30:00.923Z,12.53
2023-05-09T07:31:03.740Z,12.65
2023-05-09T07:32:06.549Z,12.66
2023-05-09T07:33:09.348Z,12.74
2023-05-09T07:34:12.153Z,12.79
2023-05-09T07:35:15.206Z,12.90
2023-05-09T07:36:18.192Z,12.95
2023-05-09T07:37:21.087Z,12.92
2023-05-09T07:38:23.784Z,12.97
2023-05-09T07:39:26.582Z,12.96
2023-05-09T07:40:29.230Z,13.05
2023-05-09T07:41:32.133Z,13.00
2023-05-09T07:42:34.900Z,12.99
2023-05-09T07:43:37.646Z,13.03
2023-05-09T07:44:40.435Z,13.04
2023-05-09T07:45:43.872Z,13.11
2023-05-09T07:46:46.632Z,13.17
2023-05-09T07:47:49.539Z,13.35
2023-05-09T07:48:52.311Z,13.55
2023-05-09T07:49:55.092Z,13.65
2023-05-09T07:50:58.536Z,13.71
2023-05-09T07:52:01.557Z,13.74
2023-05-09T07:53:04.300Z,13.87
2023-05-09T07:54:07.366Z,13.99
2023-05-09T07:55:10.203Z,13.99
2023-05-09T07:56:13.614Z,14.04
2023-05-09T07:57:16.851Z,14.06
2023-05-09T07:58:19.547Z,13.98
2023-05-09T07:59:22.290Z,13.95
2023-05-09T08:00:25.126Z,14.02
2023-05-09T08:01:27.895Z,14.09
2023-05-09T08:02:30.647Z,14.14
2023-05-09T08:03:33.602Z,14.20
2023-05-09T08:04:38.620Z,14.23
2023-05-09T08:05:41.473Z,14.35
2023-05-09T08:06:44.212Z,14.35
2023-05-09T08:07:46.984Z,14.32
2023-05-09T08:08:49.825Z,14.31
2023-05-09T08:09:52.793Z,14.37
2023-05-09T08:10:56.442Z,14.40
2023-05-09T08:11:59.240Z,14.41
2023-05-09T08:13:02.223Z,14.52
2023-05-09T08:14:05.178Z,14.63
2023-05-09T08:15:08.273Z,14.73
2023-05-09T08:16:10.998Z,14.77
2023-05-09T08:17:13.816Z,14.81
2023-05-09T08:18:16.741Z,14.93
2023-05-09T08:19:21.418Z,15.09
2023-05-09T08:20:24.547Z,15.11
2023-05-09T08:21:27.391Z,15.07
2023-05-09T08:22:30.187Z,15.15
2023-05-09T08:23:33.222Z,15.17
2023-05-09T08:24:35.931Z,15.14
2023-05-09T08:25:38.769Z,15.24
2023-05-09T08:26:41.322Z,15.33
2023-05-09T08:27:44.202Z,15.40
2023-05-09T08:28:47.019Z,15.55
2023-05-09T08:29:49.717Z,15.66
2023-05-09T08:30:52.502Z,15.78
2023-05-09T08:31:55.333Z,15.71
2023-05-09T08:32:58.194Z,15.55
2023-05-09T08:34:01.327Z,15.55
2023-05-09T08:35:04.341Z,15.67
2023-05-09T08:36:07.377Z,15.77
2023-05-09T08:37:11.030Z,15.71
2023-05-09T08:38:14.601Z,15.67
2023-05-09T08:39:17.421Z,15.47
2023-05-09T08:40:20.289Z,15.39
2023-05-09T08:41:28.327Z,15.38
2023-05-09T08:42:32.427Z,15.30
2023-05-09T08:43:36.412Z,15.19
2023-05-09T08:44:39.246Z,15.18
2023-05-09T08:45:54.784Z,15.18
2023-05-09T08:47:01.197Z,15.39
2023-05-09T08:48:04.238Z,15.53
2023-05-09T08:49:08.612Z,15.66
2023-05-09T08:50:15.378Z,15.64
2023-05-09T08:51:18.750Z,15.61
2023-05-09T08:52:22.052Z,15.65
2023-05-09T08:53:25.038Z,15.63
2023-05-09T08:54:28.865Z,15.62
2023-05-09T08:55:32.778Z,15.78
2023-05-09T08:56:39.106Z,15.97
2023-05-09T08:57:41.742Z,16.07
2023-05-09T08:58:44.478Z,16.20
2023-05-09T08:59:49.892Z,16.25
2023-05-09T09:00:53.772Z,16.38
2023-05-09T09:01:57.047Z,16.39
2023-05-09T09:03:02.781Z,16.47
2023-05-09T09:04:09.189Z,16.52
2023-05-09T09:05:23.982Z,16.56
2023-05-09T09:06:36.932Z,16.58
2023-05-09T09:07:41.800Z,16.45
2023-05-09T09:08:46.315Z,16.47
2023-05-09T09:09:50.419Z,16.50
2023-05-09T09:10:53.815Z,16.65
2023-05-09T09:11:57.418Z,16.69
2023-05-09T09:13:01.770Z,16.86
2023-05-09T09:14:14.039Z,16.93
2023-05-09T09:15:20.376Z,16.84
2023-05-09T09:16:25.465Z,16.78
2023-05-09T09:17:30.792Z,16.77
2023-05-09T09:18:35.572Z,16.82
2023-05-09T09:19:41.326Z,16.92
2023-05-09T09:20:52.464Z,16.83
2023-05-09T09:21:59.290Z,16.80
2023-05-09T09:23:04.937Z,16.73
2023-05-09T09:24:08.234Z,16.60
2023-05-09T09:25:11.430Z,16.50
2023-05-09T09:26:14.533Z,16.37
2023-05-09T09:27:17.242Z,16.21
2023-05-09T09:28:21.040Z,16.33
2023-05-09T09:29:24.702Z,16.55
2023-05-09T09:30:27.735Z,16.79
2023-05-09T09:31:33.415Z,17.04
2023-05-09T09:32:36.827Z,17.42
2023-05-09T09:33:39.507Z,17.62
2023-05-09T09:34:42.409Z,17.62
2023-05-09T09:35:45.670Z,17.49
2023-05-09T09:36:48.737Z,17.32
2023-05-09T09:38:00.155Z,17.13
2023-05-09T09:39:05.563Z,16.99
2023-05-09T09:40:10.158Z,16.84
2023-05-09T09:41:13.303Z,16.79
2023-05-09T09:42:16.136Z,16.94
2023-05-09T09:43:19.167Z,17.19
2023-05-09T09:44:23.676Z,17.26
2023-05-09T09:45:28.203Z,17.28
2023-05-09T09:46:40.959Z,17.33
2023-05-09T09:47:45.336Z,17.26
2023-05-09T09:48:52.965Z,17.13
2023-05-09T09:49:55.799Z,17.13
2023-05-09T09:51:04.500Z,17.16
2023-05-09T09:52:07.250Z,17.33
2023-05-09T09:53:10.043Z,17.47
2023-05-09T09:54:13.673Z,17.60
2023-05-09T09:55:17.138Z,17.58
2023-05-09T09:56:21.949Z,17.73
2023-05-09T09:57:38.626Z,17.84
2023-05-09T09:58:41.476Z,17.83
2023-05-09T09:59:58.970Z,17.69
2023-05-09T10:01:07.415Z,17.62
2023-05-09T10:02:12.636Z,17.49
2023-05-09T10:03:18.616Z,17.37
2023-05-09T10:04:21.621Z,17.14
2023-05-09T10:05:28.818Z,16.91
2023-05-09T10:06:32.075Z,16.95
2023-05-09T10:07:38.704Z,17.06
2023-05-09T10:08:43.143Z,17.10
2023-05-09T10:09:46.658Z,17.07
2023-05-09T10:10:49.406Z,17.16
2023-05-09T10:11:53.665Z,17.02
2023-05-09T10:13:03.596Z,16.94
2023-05-09T10:14:06.392Z,16.86
2023-05-09T10:15:10.798Z,16.84
2023-05-09T10:16:14.671Z,16.74
2023-05-09T10:17:18.565Z,16.72
2023-05-09T10:18:31.350Z,16.64
2023-05-09T10:19:38.451Z,16.69
2023-05-09T10:20:44.012Z,16.82
2023-05-09T10:21:53.210Z,16.86
2023-05-09T10:22:58.293Z,16.98
2023-05-09T10:24:03.869Z,17.15
2023-05-09T10:25:14.946Z,17.35
2023-05-09T10:26:29.271Z,17.48
2023-05-09T10:27:35.769Z,17.58
2023-05-09T10:28:41.273Z,17.52
2023-05-09T10:29:52.432Z,17.38
2023-05-09T10:31:01.968Z,17.33
2023-05-09T10:32:16.199Z,17.31
2023-05-09T10:33:24.798Z,17.40
2023-05-09T10:34:31.137Z,17.60
2023-05-09T10:35:37.406Z,17.64
2023-05-09T10:36:40.243Z,17.82
2023-05-09T10:37:45.270Z,18.07
2023-05-09T10:38:55.290Z,18.35
2023-05-09T10:39:58.213Z,18.53
2023-05-09T10:41:01.185Z,18.67
2023-05-09T10:42:05.583Z,18.65
2023-05-09T10:43:08.463Z,18.75
2023-05-09T10:44:11.638Z,18.66
2023-05-09T10:45:15.097Z,18.79
2023-05-09T10:46:18.715Z,18.88
2023-05-09T10:47:22.500Z,18.80
2023-05-09T10:48:26.016Z,18.71
2023-05-09T10:49:29.351Z,18.53
2023-05-09T10:50:32.065Z,18.36
2023-05-09T10:51:35.029Z,18.18
2023-05-09T10:53:17.147Z,18.15
2023-05-09T10:54:32.830Z,18.26
2023-05-09T10:56:00.551Z,18.40
2023-05-09T10:57:03.907Z,18.27
2023-05-09T10:58:29.397Z,17.96
2023-05-09T10:59:37.934Z,17.71
2023-05-09T11:00:44.160Z,17.72
2023-05-09T11:01:47.029Z,17.92
2023-05-09T11:03:08.404Z,18.06
2023-05-09T11:04:17.052Z,18.29
2023-05-09T11:05:20.533Z,18.48
2023-05-09T11:06:44.011Z,18.45
2023-05-09T11:07:46.860Z,18.49
2023-05-09T11:08:49.531Z,18.43
2023-05-09T11:10:06.989Z,18.32
2023-05-09T11:11:26.119Z,18.12
2023-05-09T11:12:28.894Z,17.87
2023-05-09T11:13:33.596Z,17.91
2023-05-09T11:14:46.378Z,17.97
2023-05-09T11:16:05.242Z,18.11
2023-05-09T11:17:11.369Z,18.30
2023-05-09T11:18:14.140Z,18.39
2023-05-09T11:19:37.176Z,18.30
2023-05-09T11:20:44.725Z,18.26
2023-05-09T11:22:02.120Z,18.17
2023-05-09T11:23:06.287Z,18.11
2023-05-09T11:24:19.264Z,18.02
2023-05-09T11:25:28.696Z,17.92
2023-05-09T11:26:31.782Z,17.92
2023-05-09T11:27:58.324Z,17.94
2023-05-09T11:29:02.886Z,18.05
2023-05-09T11:30:07.431Z,18.01
2023-05-09T11:31:12.261Z,17.83
2023-05-09T11:32:16.093Z,17.88
2023-05-09T11:33:28.620Z,18.07
2023-05-09T11:34:31.520Z,18.11
2023-05-09T11:35:38.831Z,18.13
2023-05-09T11:36:47.877Z,18.37
2023-05-09T11:37:53.098Z,18.31
2023-05-09T11:39:08.086Z,18.24
2023-05-09T11:40:13.484Z,18.37
2023-05-09T11:41:16.802Z,18.57
2023-05-09T11:42:19.882Z,18.79
2023-05-09T11:43:22.797Z,18.91
2023-05-09T11:44:28.096Z,19.03
2023-05-09T11:45:33.197Z,19.06
2023-05-09T11:46:37.394Z,18.94
2023-05-09T11:47:41.168Z,18.79
2023-05-09T11:48:44.060Z,18.72
2023-05-09T11:49:46.844Z,18.64
2023-05-09T11:50:49.800Z,18.52
2023-05-09T11:51:52.432Z,18.54
2023-05-09T11:52:55.204Z,18.42
2023-05-09T11:53:57.868Z,18.40
2023-05-09T11:55:01.568Z,18.39
2023-05-09T11:56:05.342Z,18.37
2023-05-09T11:57:08.651Z,18.40
2023-05-09T11:58:11.446Z,18.19
2023-05-09T11:59:16.199Z,17.96
2023-05-09T12:00:24.289Z,17.80
2023-05-09T12:01:27.175Z,17.52
2023-05-09T12:02:30.530Z,17.34
2023-05-09T12:03:33.700Z,17.18
2023-05-09T12:04:37.002Z,17.09
2023-05-09T12:05:40.008Z,17.23
2023-05-09T12:06:48.804Z,17.25
2023-05-09T12:07:52.773Z,17.30
2023-05-09T12:08:57.551Z,17.43
2023-05-09T12:10:02.944Z,17.65
2023-05-09T12:11:09.795Z,17.84
2023-05-09T12:12:13.887Z,17.93
2023-05-09T12:13:16.709Z,18.03
2023-05-09T12:14:29.710Z,18.16
2023-05-09T12:15:38.996Z,18.23
2023-05-09T12:16:48.013Z,18.26
2023-05-09T12:18:04.906Z,18.01
2023-05-09T12:19:11.829Z,17.90
2023-05-09T12:20:14.825Z,17.79
2023-05-09T12:21:21.974Z,17.73
2023-05-09T12:22:24.876Z,17.64
2023-05-09T12:23:27.546Z,17.61
2023-05-09T12:24:31.042Z,17.51
2023-05-09T12:25:33.882Z,17.66
2023-05-09T12:26:36.747Z,17.89
2023-05-09T12:27:41.472Z,18.00
2023-05-09T12:28:44.336Z,18.01
2023-05-09T12:29:48.751Z,18.11
2023-05-09T12:30:52.678Z,17.99
2023-05-09T12:31:55.806Z,17.86
2023-05-09T12:32:58.882Z,17.85
2023-05-09T12:34:01.858Z,17.76
2023-05-09T12:35:05.129Z,17.72
2023-05-09T12:36:11.429Z,17.76
2023-05-09T12:37:19.021Z,17.91
2023-05-09T12:38:22.803Z,18.25
2023-05-09T12:39:26.889Z,18.54
2023-05-09T12:40:29.576Z,18.76
2023-05-09T12:41:39.053Z,18.90
2023-05-09T12:42:46.409Z,19.08
2023-05-09T12:43:50.611Z,19.24
2023-05-09T12:44:53.873Z,19.23
2023-05-09T12:45:58.399Z,19.30
2023-05-09T12:47:04.703Z,19.51
2023-05-09T12:48:09.445Z,19.59
2023-05-09T12:49:22.269Z,19.68
2023-05-09T12:50:32.634Z,19.70
2023-05-09T12:51:35.531Z,19.75
2023-05-09T12:53:49.176Z,19.45
2023-05-09T12:54:54.468Z,19.35
2023-05-09T12:56:15.992Z,19.28
2023-05-09T12:57:30.129Z,19.20
2023-05-09T12:58:34.346Z,19.30
2023-05-09T12:59:37.160Z,19.39
2023-05-09T13:00:44.655Z,19.33
2023-05-09T13:01:58.350Z,19.34
2023-05-09T13:03:01.325Z,19.55
2023-05-09T13:04:06.240Z,19.55
2023-05-09T13:05:20.035Z,19.54
2023-05-09T13:06:24.432Z,19.50
2023-05-09T13:07:27.296Z,19.49
2023-05-09T13:08:30.553Z,19.36
2023-05-09T13:09:34.216Z,19.10
2023-05-09T13:10:37.004Z,18.88
2023-05-09T13:11:39.733Z,18.70
2023-05-09T13:12:48.727Z,18.58
2023-05-09T13:13:51.668Z,18.73
2023-05-09T13:14:54.422Z,18.94
2023-05-09T13:15:57.755Z,19.14
2023-05-09T13:17:00.550Z,19.25
2023-05-09T13:18:03.387Z,19.32
2023-05-09T13:19:06.619Z,19.26
2023-05-09T13:20:09.627Z,19.11
2023-05-09T13:21:12.365Z,19.11
2023-05-09T13:22:16.704Z,19.14
2023-05-09T13:23:19.711Z,19.25
2023-05-09T13:24:22.422Z,19.12
2023-05-09T13:25:25.104Z,19.04
2023-05-09T13:26:27.986Z,18.79
2023-05-09T13:27:31.235Z,18.68
2023-05-09T13:28:37.245Z,18.44
2023-05-09T13:29:40.100Z,18.43
2023-05-09T13:30:42.830Z,18.23
2023-05-09T13:31:45.958Z,18.08
2023-05-09T13:32:48.818Z,18.06
2023-05-09T13:33:52.230Z,18.02
2023-05-09T13:34:55.159Z,18.07
2023-05-09T13:35:58.057Z,17.98
2023-05-09T13:37:00.999Z,17.87
2023-05-09T13:38:03.989Z,17.84
2023-05-09T13:39:06.880Z,17.70
2023-05-09T13:40:11.123Z,17.80
2023-05-09T13:41:20.376Z,17.78
2023-05-09T13:42:23.326Z,17.67
2023-05-09T13:43:26.240Z,17.58
2023-05-09T13:44:29.322Z,17.50
2023-05-09T13:45:32.234Z,17.50
2023-05-09T13:46:35.116Z,17.48
2023-05-09T13:47:38.926Z,17.60
2023-05-09T13:48:42.139Z,17.78
2023-05-09T13:49:45.240Z,17.91
2023-05-09T13:50:48.087Z,17.88
2023-05-09T13:51:51.393Z,17.82
2023-05-09T13:52:54.752Z,17.85
2023-05-09T13:53:57.896Z,17.67
2023-05-09T13:55:00.785Z,17.51
2023-05-09T13:56:03.983Z,17.45
2023-05-09T13:57:08.043Z,17.40
2023-05-09T13:58:11.659Z,17.34
2023-05-09T13:59:14.891Z,17.29
2023-05-09T14:00:18.374Z,17.32
2023-05-09T14:01:21.439Z,17.22
2023-05-09T14:02:24.871Z,17.17
2023-05-09T14:03:27.883Z,17.14
2023-05-09T14:04:35.198Z,17.07
2023-05-09T14:05:38.240Z,17.11
2023-05-09T14:06:47.861Z,17.16
2023-05-09T14:07:50.772Z,17.20